SEA weather

Seattle Tacoma International Airport
Seattle, Washington, United States

Public forecast

Using degrees Fahrenheit for public forecast. Weather courtesy of forecast.io.

METAR (pilot weather report)

Retrieved 2018/04/21 04:53 UTC (31 minutes ago):

KSEA 210453Z 23007KT 10SM SCT075 OVC090 12/03 A3017 RMK AO2 SLP222 T01170028

TAF (pilot weather forecast)

Forecast is more than 12 hours old.

Retrieved 2018/04/20 00:22 UTC (1 day ago):

TAF KSEA 202320Z 2100/2206 25007KT P6SM OVC080 FM210500 18010KT P6SM OVC050 FM210800 18012G20KT P6SM -RA BKN025 OVC050 FM211200 20014G22KT P6SM -SHRA BKN020 BKN040 FM211600 23012KT P6SM VCSH SCT030 BKN050 FM212000 VRB05KT P6SM -SHRA BKN030